sensor_id;sensor_type;location;lat;lon;timestamp;P1;durP1;ratioP1;P2;durP2;ratioP2
12725;SDS011;6427;49.754;6.106;2022-12-18T00:02:12;43.17;;;19.23;;
12725;SDS011;6427;49.754;6.106;2022-12-18T00:04:40;38.63;;;16.63;;
12725;SDS011;6427;49.754;6.106;2022-12-18T00:07:08;41.17;;;16.40;;
12725;SDS011;6427;49.754;6.106;2022-12-18T00:09:36;28.97;;;13.87;;
12725;SDS011;6427;49.754;6.106;2022-12-18T00:12:04;34.77;;;14.80;;
12725;SDS011;6427;49.754;6.106;2022-12-18T00:14:32;36.57;;;14.90;;
12725;SDS011;6427;49.754;6.106;2022-12-18T00:16:59;43.97;;;17.70;;
12725;SDS011;6427;49.754;6.106;2022-12-18T00:19:27;45.03;;;18.83;;
12725;SDS011;6427;49.754;6.106;2022-12-18T00:21:55;50.63;;;19.53;;
12725;SDS011;6427;49.754;6.106;2022-12-18T00:24:23;47.70;;;19.23;;
12725;SDS011;6427;49.754;6.106;2022-12-18T00:26:50;49.83;;;18.73;;
12725;SDS011;6427;49.754;6.106;2022-12-18T00:29:18;60.37;;;21.43;;
12725;SDS011;6427;49.754;6.106;2022-12-18T00:31:45;51.60;;;19.80;;
12725;SDS011;6427;49.754;6.106;2022-12-18T00:34:13;63.20;;;21.50;;
12725;SDS011;6427;49.754;6.106;2022-12-18T00:36:41;48.67;;;18.07;;
12725;SDS011;6427;49.754;6.106;2022-12-18T00:39:09;41.43;;;16.57;;
12725;SDS011;6427;49.754;6.106;2022-12-18T00:41:37;43.83;;;15.97;;
12725;SDS011;6427;49.754;6.106;2022-12-18T00:44:23;39.70;;;15.70;;
12725;SDS011;6427;49.754;6.106;2022-12-18T00:46:51;41.47;;;15.03;;
12725;SDS011;6427;49.754;6.106;2022-12-18T00:49:19;32.10;;;14.27;;
12725;SDS011;6427;49.754;6.106;2022-12-18T00:51:46;29.17;;;13.07;;
12725;SDS011;6427;49.754;6.106;2022-12-18T00:54:14;29.47;;;13.20;;
12725;SDS011;6427;49.754;6.106;2022-12-18T00:56:41;31.23;;;13.27;;
12725;SDS011;6427;49.754;6.106;2022-12-18T00:59:09;26.37;;;10.90;;
12725;SDS011;6427;49.754;6.106;2022-12-18T01:01:36;25.57;;;11.67;;
12725;SDS011;6427;49.754;6.106;2022-12-18T01:04:05;26.73;;;12.13;;
12725;SDS011;6427;49.754;6.106;2022-12-18T01:06:33;27.27;;;11.73;;
12725;SDS011;6427;49.754;6.106;2022-12-18T01:09:01;32.43;;;13.77;;
12725;SDS011;6427;49.754;6.106;2022-12-18T01:11:28;27.47;;;12.43;;
12725;SDS011;6427;49.754;6.106;2022-12-18T01:13:56;28.20;;;12.47;;
12725;SDS011;6427;49.754;6.106;2022-12-18T01:16:26;32.57;;;13.30;;
12725;SDS011;6427;49.754;6.106;2022-12-18T01:18:53;36.20;;;18.57;;
12725;SDS011;6427;49.754;6.106;2022-12-18T01:21:21;32.23;;;15.37;;
12725;SDS011;6427;49.754;6.106;2022-12-18T01:23:55;30.63;;;14.30;;
12725;SDS011;6427;49.754;6.106;2022-12-18T01:26:19;27.57;;;12.43;;
12725;SDS011;6427;49.754;6.106;2022-12-18T01:28:47;33.90;;;12.83;;
12725;SDS011;6427;49.754;6.106;2022-12-18T01:31:15;31.20;;;12.77;;
12725;SDS011;6427;49.754;6.106;2022-12-18T01:33:42;34.50;;;17.83;;
12725;SDS011;6427;49.754;6.106;2022-12-18T01:36:17;32.17;;;14.80;;
12725;SDS011;6427;49.754;6.106;2022-12-18T01:38:47;50.07;;;20.70;;
12725;SDS011;6427;49.754;6.106;2022-12-18T01:41:15;47.53;;;17.43;;
12725;SDS011;6427;49.754;6.106;2022-12-18T01:43:46;37.13;;;16.20;;
12725;SDS011;6427;49.754;6.106;2022-12-18T01:46:12;33.80;;;14.60;;
12725;SDS011;6427;49.754;6.106;2022-12-18T01:48:40;56.83;;;22.50;;
12725;SDS011;6427;49.754;6.106;2022-12-18T01:51:07;45.10;;;18.63;;
12725;SDS011;6427;49.754;6.106;2022-12-18T01:53:34;51.10;;;20.27;;
12725;SDS011;6427;49.754;6.106;2022-12-18T01:56:02;31.60;;;14.30;;
12725;SDS011;6427;49.754;6.106;2022-12-18T01:58:35;33.80;;;14.27;;
12725;SDS011;6427;49.754;6.106;2022-12-18T02:01:15;27.00;;;12.93;;
12725;SDS011;6427;49.754;6.106;2022-12-18T02:03:43;35.20;;;14.23;;
12725;SDS011;6427;49.754;6.106;2022-12-18T02:09:06;48.08;;;23.75;;
12725;SDS011;6427;49.754;6.106;2022-12-18T02:14:38;37.10;;;16.77;;
12725;SDS011;6427;49.754;6.106;2022-12-18T02:17:13;32.73;;;15.47;;
12725;SDS011;6427;49.754;6.106;2022-12-18T02:22:35;36.37;;;14.87;;
12725;SDS011;6427;49.754;6.106;2022-12-18T02:27:49;37.73;;;17.17;;
12725;SDS011;6427;49.754;6.106;2022-12-18T02:30:16;34.93;;;15.70;;
12725;SDS011;6427;49.754;6.106;2022-12-18T02:32:46;36.13;;;14.60;;
12725;SDS011;6427;49.754;6.106;2022-12-18T02:35:16;28.10;;;12.13;;
12725;SDS011;6427;49.754;6.106;2022-12-18T02:37:43;34.72;;;17.80;;
12725;SDS011;6427;49.754;6.106;2022-12-18T02:40:11;30.53;;;13.20;;
12725;SDS011;6427;49.754;6.106;2022-12-18T02:42:39;27.40;;;12.53;;
12725;SDS011;6427;49.754;6.106;2022-12-18T02:45:07;28.53;;;11.93;;
12725;SDS011;6427;49.754;6.106;2022-12-18T02:47:36;23.47;;;10.77;;
12725;SDS011;6427;49.754;6.106;2022-12-18T02:53:12;27.43;;;12.57;;
12725;SDS011;6427;49.754;6.106;2022-12-18T02:58:30;30.90;;;12.33;;
12725;SDS011;6427;49.754;6.106;2022-12-18T03:01:50;35.55;;;18.25;;
12725;SDS011;6427;49.754;6.106;2022-12-18T03:04:04;37.67;;;15.40;;
12725;SDS011;6427;49.754;6.106;2022-12-18T03:06:35;33.77;;;15.23;;
12725;SDS011;6427;49.754;6.106;2022-12-18T03:09:02;40.30;;;16.60;;
12725;SDS011;6427;49.754;6.106;2022-12-18T03:11:29;41.90;;;15.60;;
12725;SDS011;6427;49.754;6.106;2022-12-18T03:14:15;41.27;;;16.67;;
12725;SDS011;6427;49.754;6.106;2022-12-18T03:16:42;40.07;;;15.90;;
12725;SDS011;6427;49.754;6.106;2022-12-18T03:19:11;44.23;;;16.13;;
12725;SDS011;6427;49.754;6.106;2022-12-18T03:21:42;35.80;;;14.53;;
12725;SDS011;6427;49.754;6.106;2022-12-18T03:24:15;36.23;;;14.17;;
12725;SDS011;6427;49.754;6.106;2022-12-18T03:26:46;43.83;;;15.80;;
12725;SDS011;6427;49.754;6.106;2022-12-18T03:29:14;35.03;;;14.47;;
12725;SDS011;6427;49.754;6.106;2022-12-18T03:31:41;28.87;;;12.87;;
12725;SDS011;6427;49.754;6.106;2022-12-18T03:34:12;30.00;;;13.10;;
12725;SDS011;6427;49.754;6.106;2022-12-18T03:36:37;31.67;;;13.50;;
12725;SDS011;6427;49.754;6.106;2022-12-18T03:39:04;27.93;;;12.40;;
12725;SDS011;6427;49.754;6.106;2022-12-18T03:44:14;27.93;;;11.60;;
12725;SDS011;6427;49.754;6.106;2022-12-18T03:49:55;35.08;;;17.77;;
12725;SDS011;6427;49.754;6.106;2022-12-18T03:52:48;28.40;;;13.60;;
12725;SDS011;6427;49.754;6.106;2022-12-18T03:55:17;26.73;;;12.93;;
12725;SDS011;6427;49.754;6.106;2022-12-18T03:57:45;28.73;;;12.43;;
12725;SDS011;6427;49.754;6.106;2022-12-18T04:00:13;29.27;;;12.50;;
12725;SDS011;6427;49.754;6.106;2022-12-18T04:03:01;27.23;;;12.70;;
12725;SDS011;6427;49.754;6.106;2022-12-18T04:05:08;35.20;;;14.20;;
12725;SDS011;6427;49.754;6.106;2022-12-18T04:07:36;27.17;;;13.07;;
12725;SDS011;6427;49.754;6.106;2022-12-18T04:10:03;29.03;;;12.03;;
12725;SDS011;6427;49.754;6.106;2022-12-18T04:12:31;28.77;;;13.63;;
12725;SDS011;6427;49.754;6.106;2022-12-18T04:14:58;28.10;;;12.50;;
12725;SDS011;6427;49.754;6.106;2022-12-18T04:17:26;30.33;;;13.17;;
12725;SDS011;6427;49.754;6.106;2022-12-18T04:19:54;30.40;;;12.17;;
12725;SDS011;6427;49.754;6.106;2022-12-18T04:22:21;28.30;;;12.27;;
12725;SDS011;6427;49.754;6.106;2022-12-18T04:24:49;30.50;;;12.33;;
12725;SDS011;6427;49.754;6.106;2022-12-18T04:27:17;27.53;;;12.13;;
12725;SDS011;6427;49.754;6.106;2022-12-18T04:29:45;24.10;;;11.33;;
12725;SDS011;6427;49.754;6.106;2022-12-18T04:32:12;29.07;;;11.60;;
12725;SDS011;6427;49.754;6.106;2022-12-18T04:34:41;26.30;;;11.63;;
12725;SDS011;6427;49.754;6.106;2022-12-18T04:37:09;22.97;;;10.80;;
12725;SDS011;6427;49.754;6.106;2022-12-18T04:39:36;24.13;;;10.40;;
12725;SDS011;6427;49.754;6.106;2022-12-18T04:42:05;24.13;;;10.53;;
12725;SDS011;6427;49.754;6.106;2022-12-18T04:44:33;25.77;;;11.27;;
12725;SDS011;6427;49.754;6.106;2022-12-18T04:47:01;25.03;;;11.57;;
12725;SDS011;6427;49.754;6.106;2022-12-18T04:49:28;25.43;;;9.77;;
12725;SDS011;6427;49.754;6.106;2022-12-18T04:51:56;21.67;;;10.17;;
12725;SDS011;6427;49.754;6.106;2022-12-18T04:54:23;22.83;;;10.20;;
12725;SDS011;6427;49.754;6.106;2022-12-18T04:56:51;23.43;;;10.73;;
12725;SDS011;6427;49.754;6.106;2022-12-18T04:59:19;30.53;;;15.87;;
12725;SDS011;6427;49.754;6.106;2022-12-18T05:01:46;31.02;;;16.80;;
12725;SDS011;6427;49.754;6.106;2022-12-18T05:04:14;33.05;;;17.12;;
12725;SDS011;6427;49.754;6.106;2022-12-18T05:06:41;26.40;;;13.03;;
12725;SDS011;6427;49.754;6.106;2022-12-18T05:09:09;31.23;;;13.27;;
12725;SDS011;6427;49.754;6.106;2022-12-18T05:11:37;43.33;;;24.00;;
12725;SDS011;6427;49.754;6.106;2022-12-18T05:14:05;43.20;;;24.67;;
12725;SDS011;6427;49.754;6.106;2022-12-18T05:16:32;36.67;;;20.17;;
12725;SDS011;6427;49.754;6.106;2022-12-18T05:19:00;32.50;;;15.97;;
12725;SDS011;6427;49.754;6.106;2022-12-18T05:21:28;30.20;;;13.60;;
12725;SDS011;6427;49.754;6.106;2022-12-18T05:23:56;30.27;;;13.57;;
12725;SDS011;6427;49.754;6.106;2022-12-18T05:26:25;35.57;;;15.40;;
12725;SDS011;6427;49.754;6.106;2022-12-18T05:28:52;29.77;;;13.33;;
12725;SDS011;6427;49.754;6.106;2022-12-18T05:31:23;26.90;;;11.27;;
12725;SDS011;6427;49.754;6.106;2022-12-18T05:33:51;22.60;;;10.90;;
12725;SDS011;6427;49.754;6.106;2022-12-18T05:36:18;22.30;;;10.40;;
12725;SDS011;6427;49.754;6.106;2022-12-18T05:38:47;25.33;;;10.47;;
12725;SDS011;6427;49.754;6.106;2022-12-18T05:41:15;31.87;;;15.60;;
12725;SDS011;6427;49.754;6.106;2022-12-18T05:43:42;22.47;;;10.30;;
12725;SDS011;6427;49.754;6.106;2022-12-18T05:46:14;22.37;;;9.53;;
12725;SDS011;6427;49.754;6.106;2022-12-18T05:48:41;24.50;;;9.43;;
12725;SDS011;6427;49.754;6.106;2022-12-18T05:51:09;19.70;;;9.07;;
12725;SDS011;6427;49.754;6.106;2022-12-18T05:53:36;21.37;;;8.77;;
12725;SDS011;6427;49.754;6.106;2022-12-18T05:56:04;26.58;;;13.77;;
12725;SDS011;6427;49.754;6.106;2022-12-18T05:58:32;24.47;;;10.70;;
12725;SDS011;6427;49.754;6.106;2022-12-18T06:01:11;22.87;;;9.97;;
12725;SDS011;6427;49.754;6.106;2022-12-18T06:03:33;22.63;;;9.47;;
12725;SDS011;6427;49.754;6.106;2022-12-18T06:06:01;17.90;;;8.83;;
12725;SDS011;6427;49.754;6.106;2022-12-18T06:08:29;24.77;;;9.27;;
12725;SDS011;6427;49.754;6.106;2022-12-18T06:10:56;22.33;;;9.43;;
12725;SDS011;6427;49.754;6.106;2022-12-18T06:13:24;20.87;;;9.23;;
12725;SDS011;6427;49.754;6.106;2022-12-18T06:15:52;24.07;;;10.33;;
12725;SDS011;6427;49.754;6.106;2022-12-18T06:18:20;20.63;;;9.93;;
12725;SDS011;6427;49.754;6.106;2022-12-18T06:20:54;27.80;;;13.83;;
12725;SDS011;6427;49.754;6.106;2022-12-18T06:23:21;21.07;;;9.80;;
12725;SDS011;6427;49.754;6.106;2022-12-18T06:25:48;17.03;;;8.47;;
12725;SDS011;6427;49.754;6.106;2022-12-18T06:28:16;25.07;;;10.03;;
12725;SDS011;6427;49.754;6.106;2022-12-18T06:30:45;20.03;;;9.53;;
12725;SDS011;6427;49.754;6.106;2022-12-18T06:33:12;22.03;;;9.50;;
12725;SDS011;6427;49.754;6.106;2022-12-18T06:35:39;22.07;;;9.17;;
12725;SDS011;6427;49.754;6.106;2022-12-18T06:38:07;21.63;;;10.17;;
12725;SDS011;6427;49.754;6.106;2022-12-18T06:40:36;21.97;;;9.57;;
12725;SDS011;6427;49.754;6.106;2022-12-18T06:43:03;23.67;;;9.97;;
12725;SDS011;6427;49.754;6.106;2022-12-18T06:45:31;26.90;;;11.03;;
12725;SDS011;6427;49.754;6.106;2022-12-18T06:47:59;24.63;;;11.20;;
12725;SDS011;6427;49.754;6.106;2022-12-18T06:50:27;25.10;;;10.67;;
12725;SDS011;6427;49.754;6.106;2022-12-18T06:52:55;23.37;;;10.63;;
12725;SDS011;6427;49.754;6.106;2022-12-18T06:55:22;22.47;;;10.30;;
12725;SDS011;6427;49.754;6.106;2022-12-18T06:57:50;24.67;;;10.80;;
12725;SDS011;6427;49.754;6.106;2022-12-18T07:00:18;24.37;;;10.57;;
12725;SDS011;6427;49.754;6.106;2022-12-18T07:02:46;24.07;;;9.67;;
12725;SDS011;6427;49.754;6.106;2022-12-18T07:05:13;26.33;;;10.40;;
12725;SDS011;6427;49.754;6.106;2022-12-18T07:07:41;22.07;;;9.23;;
12725;SDS011;6427;49.754;6.106;2022-12-18T07:10:09;20.00;;;9.07;;
12725;SDS011;6427;49.754;6.106;2022-12-18T07:12:37;21.73;;;9.30;;
12725;SDS011;6427;49.754;6.106;2022-12-18T07:15:04;17.90;;;8.57;;
12725;SDS011;6427;49.754;6.106;2022-12-18T07:17:32;20.03;;;7.93;;
12725;SDS011;6427;49.754;6.106;2022-12-18T07:20:00;19.33;;;8.33;;
12725;SDS011;6427;49.754;6.106;2022-12-18T07:22:27;17.70;;;8.60;;
12725;SDS011;6427;49.754;6.106;2022-12-18T07:24:55;19.43;;;8.83;;
12725;SDS011;6427;49.754;6.106;2022-12-18T07:27:23;23.73;;;12.57;;
12725;SDS011;6427;49.754;6.106;2022-12-18T07:29:50;23.58;;;13.45;;
12725;SDS011;6427;49.754;6.106;2022-12-18T07:32:18;22.87;;;10.23;;
12725;SDS011;6427;49.754;6.106;2022-12-18T07:34:45;34.50;;;12.70;;
12725;SDS011;6427;49.754;6.106;2022-12-18T07:37:13;44.23;;;12.10;;
12725;SDS011;6427;49.754;6.106;2022-12-18T07:39:40;34.17;;;13.33;;
12725;SDS011;6427;49.754;6.106;2022-12-18T07:42:08;52.57;;;14.83;;
12725;SDS011;6427;49.754;6.106;2022-12-18T07:44:54;36.63;;;13.73;;
12725;SDS011;6427;49.754;6.106;2022-12-18T07:47:21;39.83;;;14.40;;
12725;SDS011;6427;49.754;6.106;2022-12-18T07:49:49;32.77;;;11.70;;
12725;SDS011;6427;49.754;6.106;2022-12-18T07:52:16;36.30;;;13.67;;
12725;SDS011;6427;49.754;6.106;2022-12-18T07:54:44;43.57;;;14.53;;
12725;SDS011;6427;49.754;6.106;2022-12-18T07:57:12;41.67;;;15.57;;
12725;SDS011;6427;49.754;6.106;2022-12-18T07:59:43;40.30;;;16.03;;
12725;SDS011;6427;49.754;6.106;2022-12-18T08:02:10;29.57;;;12.70;;
12725;SDS011;6427;49.754;6.106;2022-12-18T08:04:38;31.73;;;11.83;;
12725;SDS011;6427;49.754;6.106;2022-12-18T08:07:05;24.67;;;10.50;;
12725;SDS011;6427;49.754;6.106;2022-12-18T08:09:33;27.10;;;10.53;;
12725;SDS011;6427;49.754;6.106;2022-12-18T08:12:01;22.67;;;9.40;;
12725;SDS011;6427;49.754;6.106;2022-12-18T08:14:29;19.47;;;9.20;;
12725;SDS011;6427;49.754;6.106;2022-12-18T08:16:56;25.10;;;9.93;;
12725;SDS011;6427;49.754;6.106;2022-12-18T08:19:24;17.70;;;8.73;;
12725;SDS011;6427;49.754;6.106;2022-12-18T08:21:51;22.20;;;9.30;;
12725;SDS011;6427;49.754;6.106;2022-12-18T08:24:19;19.10;;;9.67;;
12725;SDS011;6427;49.754;6.106;2022-12-18T08:26:47;25.20;;;11.67;;
12725;SDS011;6427;49.754;6.106;2022-12-18T08:29:15;28.13;;;12.83;;
12725;SDS011;6427;49.754;6.106;2022-12-18T08:31:43;32.40;;;12.67;;
12725;SDS011;6427;49.754;6.106;2022-12-18T08:34:10;23.27;;;11.13;;
12725;SDS011;6427;49.754;6.106;2022-12-18T08:36:38;24.50;;;11.67;;
12725;SDS011;6427;49.754;6.106;2022-12-18T08:39:05;29.73;;;12.27;;
12725;SDS011;6427;49.754;6.106;2022-12-18T08:41:33;31.20;;;12.57;;
12725;SDS011;6427;49.754;6.106;2022-12-18T08:44:01;27.13;;;12.57;;
12725;SDS011;6427;49.754;6.106;2022-12-18T08:46:47;27.63;;;12.70;;
12725;SDS011;6427;49.754;6.106;2022-12-18T08:49:15;28.23;;;12.33;;
12725;SDS011;6427;49.754;6.106;2022-12-18T08:51:42;35.67;;;18.27;;
12725;SDS011;6427;49.754;6.106;2022-12-18T08:54:13;31.27;;;18.08;;
12725;SDS011;6427;49.754;6.106;2022-12-18T08:56:40;33.72;;;18.92;;
12725;SDS011;6427;49.754;6.106;2022-12-18T08:59:08;29.73;;;14.77;;
12725;SDS011;6427;49.754;6.106;2022-12-18T09:01:35;30.80;;;18.13;;
12725;SDS011;6427;49.754;6.106;2022-12-18T09:04:03;32.63;;;15.10;;
12725;SDS011;6427;49.754;6.106;2022-12-18T09:06:30;28.00;;;13.87;;
12725;SDS011;6427;49.754;6.106;2022-12-18T09:08:58;27.10;;;12.63;;
12725;SDS011;6427;49.754;6.106;2022-12-18T09:11:26;32.27;;;17.23;;
12725;SDS011;6427;49.754;6.106;2022-12-18T09:13:54;33.93;;;18.47;;
12725;SDS011;6427;49.754;6.106;2022-12-18T09:16:22;33.33;;;15.77;;
12725;SDS011;6427;49.754;6.106;2022-12-18T09:18:49;32.83;;;14.70;;
12725;SDS011;6427;49.754;6.106;2022-12-18T09:21:20;32.27;;;14.90;;
12725;SDS011;6427;49.754;6.106;2022-12-18T09:23:48;32.07;;;15.10;;
12725;SDS011;6427;49.754;6.106;2022-12-18T09:26:12;31.30;;;14.47;;
12725;SDS011;6427;49.754;6.106;2022-12-18T09:28:39;34.70;;;14.43;;
12725;SDS011;6427;49.754;6.106;2022-12-18T09:31:08;34.30;;;14.37;;
12725;SDS011;6427;49.754;6.106;2022-12-18T09:33:35;32.20;;;14.57;;
12725;SDS011;6427;49.754;6.106;2022-12-18T09:36:03;37.47;;;19.93;;
12725;SDS011;6427;49.754;6.106;2022-12-18T09:38:30;32.07;;;17.40;;
12725;SDS011;6427;49.754;6.106;2022-12-18T09:40:59;34.47;;;16.23;;
12725;SDS011;6427;49.754;6.106;2022-12-18T09:43:30;37.97;;;20.57;;
12725;SDS011;6427;49.754;6.106;2022-12-18T09:46:01;36.57;;;16.93;;
12725;SDS011;6427;49.754;6.106;2022-12-18T09:48:34;29.77;;;15.27;;
12725;SDS011;6427;49.754;6.106;2022-12-18T09:51:05;28.60;;;14.43;;
12725;SDS011;6427;49.754;6.106;2022-12-18T09:53:33;29.77;;;14.40;;
12725;SDS011;6427;49.754;6.106;2022-12-18T09:56:01;28.07;;;14.23;;
12725;SDS011;6427;49.754;6.106;2022-12-18T10:01:06;26.43;;;12.70;;
12725;SDS011;6427;49.754;6.106;2022-12-18T10:03:31;35.43;;;13.53;;
12725;SDS011;6427;49.754;6.106;2022-12-18T10:06:02;28.37;;;13.60;;
12725;SDS011;6427;49.754;6.106;2022-12-18T10:13:57;29.40;;;13.20;;
12725;SDS011;6427;49.754;6.106;2022-12-18T10:16:25;32.50;;;14.90;;
12725;SDS011;6427;49.754;6.106;2022-12-18T10:19:09;30.57;;;14.57;;
12725;SDS011;6427;49.754;6.106;2022-12-18T10:22:02;34.60;;;19.87;;
12725;SDS011;6427;49.754;6.106;2022-12-18T10:24:40;30.20;;;16.10;;
12725;SDS011;6427;49.754;6.106;2022-12-18T10:27:12;33.00;;;17.47;;
12725;SDS011;6427;49.754;6.106;2022-12-18T10:29:43;38.67;;;17.07;;
12725;SDS011;6427;49.754;6.106;2022-12-18T10:32:17;33.40;;;16.80;;
12725;SDS011;6427;49.754;6.106;2022-12-18T10:34:48;34.00;;;16.53;;
12725;SDS011;6427;49.754;6.106;2022-12-18T10:37:18;36.70;;;17.60;;
12725;SDS011;6427;49.754;6.106;2022-12-18T10:39:46;33.73;;;16.23;;
12725;SDS011;6427;49.754;6.106;2022-12-18T10:42:17;34.30;;;17.17;;
12725;SDS011;6427;49.754;6.106;2022-12-18T10:44:44;34.70;;;16.57;;
12725;SDS011;6427;49.754;6.106;2022-12-18T10:47:13;33.13;;;17.53;;
12725;SDS011;6427;49.754;6.106;2022-12-18T10:49:42;31.60;;;16.93;;
12725;SDS011;6427;49.754;6.106;2022-12-18T10:52:14;38.57;;;17.63;;
12725;SDS011;6427;49.754;6.106;2022-12-18T10:54:49;34.03;;;16.93;;
12725;SDS011;6427;49.754;6.106;2022-12-18T11:02:50;33.13;;;16.20;;
12725;SDS011;6427;49.754;6.106;2022-12-18T11:05:31;38.07;;;17.50;;
12725;SDS011;6427;49.754;6.106;2022-12-18T11:07:58;36.73;;;16.50;;
12725;SDS011;6427;49.754;6.106;2022-12-18T11:10:28;34.10;;;16.77;;
12725;SDS011;6427;49.754;6.106;2022-12-18T11:12:55;36.60;;;21.23;;
12725;SDS011;6427;49.754;6.106;2022-12-18T11:15:27;34.87;;;16.93;;
12725;SDS011;6427;49.754;6.106;2022-12-18T11:17:53;33.77;;;17.57;;
12725;SDS011;6427;49.754;6.106;2022-12-18T11:20:23;34.27;;;17.53;;
12725;SDS011;6427;49.754;6.106;2022-12-18T11:22:55;37.63;;;18.23;;
12725;SDS011;6427;49.754;6.106;2022-12-18T11:25:25;33.83;;;17.03;;
12725;SDS011;6427;49.754;6.106;2022-12-18T11:27:56;33.77;;;17.33;;
12725;SDS011;6427;49.754;6.106;2022-12-18T11:30:26;34.00;;;17.37;;
12725;SDS011;6427;49.754;6.106;2022-12-18T11:33:08;38.10;;;18.23;;
12725;SDS011;6427;49.754;6.106;2022-12-18T11:38:16;34.43;;;16.87;;
12725;SDS011;6427;49.754;6.106;2022-12-18T11:40:43;33.30;;;16.47;;
12725;SDS011;6427;49.754;6.106;2022-12-18T11:43:13;33.30;;;16.77;;
12725;SDS011;6427;49.754;6.106;2022-12-18T11:45:47;36.37;;;17.07;;
12725;SDS011;6427;49.754;6.106;2022-12-18T11:48:21;30.83;;;16.50;;
12725;SDS011;6427;49.754;6.106;2022-12-18T11:51:00;32.47;;;17.20;;
12725;SDS011;6427;49.754;6.106;2022-12-18T11:53:28;32.07;;;16.87;;
12725;SDS011;6427;49.754;6.106;2022-12-18T12:01:36;36.33;;;17.67;;
12725;SDS011;6427;49.754;6.106;2022-12-18T12:07:04;33.23;;;16.80;;
12725;SDS011;6427;49.754;6.106;2022-12-18T12:12:05;34.47;;;15.40;;
12725;SDS011;6427;49.754;6.106;2022-12-18T12:17:35;34.00;;;16.47;;
12725;SDS011;6427;49.754;6.106;2022-12-18T12:20:20;31.10;;;16.13;;
12725;SDS011;6427;49.754;6.106;2022-12-18T12:23:09;32.07;;;15.20;;
12725;SDS011;6427;49.754;6.106;2022-12-18T12:25:44;29.53;;;14.77;;
12725;SDS011;6427;49.754;6.106;2022-12-18T12:30:52;34.70;;;16.23;;
12725;SDS011;6427;49.754;6.106;2022-12-18T12:36:15;34.73;;;16.70;;
12725;SDS011;6427;49.754;6.106;2022-12-18T12:38:52;29.97;;;14.50;;
12725;SDS011;6427;49.754;6.106;2022-12-18T12:41:25;31.87;;;15.90;;
12725;SDS011;6427;49.754;6.106;2022-12-18T12:44:15;37.90;;;21.35;;
12725;SDS011;6427;49.754;6.106;2022-12-18T12:46:42;33.10;;;16.47;;
12725;SDS011;6427;49.754;6.106;2022-12-18T12:49:11;31.50;;;16.60;;
12725;SDS011;6427;49.754;6.106;2022-12-18T12:51:40;37.42;;;21.92;;
12725;SDS011;6427;49.754;6.106;2022-12-18T12:54:16;34.10;;;19.03;;
12725;SDS011;6427;49.754;6.106;2022-12-18T12:57:01;32.43;;;16.37;;
12725;SDS011;6427;49.754;6.106;2022-12-18T13:02:29;31.60;;;16.97;;
12725;SDS011;6427;49.754;6.106;2022-12-18T13:07:49;33.93;;;17.87;;
12725;SDS011;6427;49.754;6.106;2022-12-18T13:20:40;35.77;;;18.60;;
12725;SDS011;6427;49.754;6.106;2022-12-18T13:25:50;35.93;;;18.57;;
12725;SDS011;6427;49.754;6.106;2022-12-18T13:28:22;36.10;;;17.37;;
12725;SDS011;6427;49.754;6.106;2022-12-18T13:30:55;36.50;;;19.13;;
12725;SDS011;6427;49.754;6.106;2022-12-18T13:36:00;37.27;;;17.73;;
12725;SDS011;6427;49.754;6.106;2022-12-18T13:38:34;39.60;;;19.83;;
12725;SDS011;6427;49.754;6.106;2022-12-18T13:41:02;37.27;;;18.90;;
12725;SDS011;6427;49.754;6.106;2022-12-18T13:43:39;42.47;;;19.60;;
12725;SDS011;6427;49.754;6.106;2022-12-18T13:46:06;41.60;;;20.00;;
12725;SDS011;6427;49.754;6.106;2022-12-18T13:48:34;41.00;;;24.40;;
12725;SDS011;6427;49.754;6.106;2022-12-18T13:51:05;41.00;;;20.47;;
12725;SDS011;6427;49.754;6.106;2022-12-18T13:53:39;36.70;;;18.70;;
12725;SDS011;6427;49.754;6.106;2022-12-18T13:56:04;39.53;;;18.53;;
12725;SDS011;6427;49.754;6.106;2022-12-18T13:58:32;38.17;;;18.50;;
12725;SDS011;6427;49.754;6.106;2022-12-18T14:01:00;37.37;;;19.03;;
12725;SDS011;6427;49.754;6.106;2022-12-18T14:03:28;35.00;;;18.73;;
12725;SDS011;6427;49.754;6.106;2022-12-18T14:06:00;38.63;;;17.93;;
12725;SDS011;6427;49.754;6.106;2022-12-18T14:08:27;40.77;;;18.40;;
12725;SDS011;6427;49.754;6.106;2022-12-18T14:10:54;38.60;;;17.80;;
12725;SDS011;6427;49.754;6.106;2022-12-18T14:13:29;34.30;;;17.23;;
12725;SDS011;6427;49.754;6.106;2022-12-18T14:15:59;38.43;;;18.90;;
12725;SDS011;6427;49.754;6.106;2022-12-18T14:18:31;40.60;;;24.45;;
12725;SDS011;6427;49.754;6.106;2022-12-18T14:21:06;39.60;;;20.40;;
12725;SDS011;6427;49.754;6.106;2022-12-18T14:23:36;41.33;;;19.67;;
12725;SDS011;6427;49.754;6.106;2022-12-18T14:26:17;40.27;;;19.47;;
12725;SDS011;6427;49.754;6.106;2022-12-18T14:28:30;40.60;;;19.20;;
12725;SDS011;6427;49.754;6.106;2022-12-18T14:30:58;44.73;;;25.73;;
12725;SDS011;6427;49.754;6.106;2022-12-18T14:33:26;44.22;;;25.62;;
12725;SDS011;6427;49.754;6.106;2022-12-18T14:36:00;45.63;;;27.23;;
12725;SDS011;6427;49.754;6.106;2022-12-18T14:38:33;46.83;;;23.63;;
12725;SDS011;6427;49.754;6.106;2022-12-18T14:41:02;37.77;;;19.60;;
12725;SDS011;6427;49.754;6.106;2022-12-18T14:43:43;44.50;;;20.33;;
12725;SDS011;6427;49.754;6.106;2022-12-18T14:48:56;47.00;;;27.33;;
12725;SDS011;6427;49.754;6.106;2022-12-18T14:51:27;42.00;;;21.60;;
12725;SDS011;6427;49.754;6.106;2022-12-18T14:53:55;45.07;;;20.03;;
12725;SDS011;6427;49.754;6.106;2022-12-18T14:56:29;42.33;;;20.43;;
12725;SDS011;6427;49.754;6.106;2022-12-18T14:59:02;40.70;;;19.60;;
12725;SDS011;6427;49.754;6.106;2022-12-18T15:01:35;45.23;;;20.03;;
12725;SDS011;6427;49.754;6.106;2022-12-18T15:04:02;40.03;;;19.93;;
12725;SDS011;6427;49.754;6.106;2022-12-18T15:06:31;41.57;;;19.97;;
12725;SDS011;6427;49.754;6.106;2022-12-18T15:08:58;42.17;;;20.63;;
12725;SDS011;6427;49.754;6.106;2022-12-18T15:11:32;44.63;;;20.43;;
12725;SDS011;6427;49.754;6.106;2022-12-18T15:14:00;42.13;;;19.87;;
12725;SDS011;6427;49.754;6.106;2022-12-18T15:16:27;46.27;;;26.63;;
12725;SDS011;6427;49.754;6.106;2022-12-18T15:18:55;49.20;;;27.90;;
12725;SDS011;6427;49.754;6.106;2022-12-18T15:21:23;44.53;;;22.63;;
12725;SDS011;6427;49.754;6.106;2022-12-18T15:23:50;46.07;;;22.20;;
12725;SDS011;6427;49.754;6.106;2022-12-18T15:26:19;41.47;;;21.47;;
12725;SDS011;6427;49.754;6.106;2022-12-18T15:28:49;48.37;;;21.87;;
12725;SDS011;6427;49.754;6.106;2022-12-18T15:31:23;49.60;;;21.80;;
12725;SDS011;6427;49.754;6.106;2022-12-18T15:36:21;44.97;;;20.73;;
12725;SDS011;6427;49.754;6.106;2022-12-18T15:38:48;44.27;;;20.57;;
12725;SDS011;6427;49.754;6.106;2022-12-18T15:41:17;48.43;;;26.90;;
12725;SDS011;6427;49.754;6.106;2022-12-18T15:43:43;47.33;;;23.93;;
12725;SDS011;6427;49.754;6.106;2022-12-18T15:46:15;46.67;;;22.23;;
12725;SDS011;6427;49.754;6.106;2022-12-18T15:48:42;48.00;;;23.30;;
12725;SDS011;6427;49.754;6.106;2022-12-18T15:51:13;43.87;;;21.37;;
12725;SDS011;6427;49.754;6.106;2022-12-18T15:53:42;47.17;;;22.37;;
12725;SDS011;6427;49.754;6.106;2022-12-18T15:56:13;43.97;;;21.63;;
12725;SDS011;6427;49.754;6.106;2022-12-18T15:58:58;47.17;;;21.67;;
12725;SDS011;6427;49.754;6.106;2022-12-18T16:01:27;42.63;;;21.23;;
12725;SDS011;6427;49.754;6.106;2022-12-18T16:03:53;46.07;;;20.80;;
12725;SDS011;6427;49.754;6.106;2022-12-18T16:06:22;45.63;;;21.30;;
12725;SDS011;6427;49.754;6.106;2022-12-18T16:08:50;42.13;;;21.50;;
12725;SDS011;6427;49.754;6.106;2022-12-18T16:14:08;47.40;;;21.50;;
12725;SDS011;6427;49.754;6.106;2022-12-18T16:16:46;43.73;;;21.67;;
12725;SDS011;6427;49.754;6.106;2022-12-18T16:19:13;55.38;;;29.40;;